createdAt,value
2022-08-24T00:02:31.015Z,101529.09
2022-08-24T00:07:34.388Z,101529.66
2022-08-24T00:12:38.581Z,101527.53
2022-08-24T00:17:41.763Z,101527.25
2022-08-24T00:22:44.713Z,101526.81
2022-08-24T00:27:49.247Z,101526.91
2022-08-24T00:32:53.766Z,101528.50
2022-08-24T00:37:57.366Z,101523.75
2022-08-24T00:43:04.567Z,101526.16
2022-08-24T00:48:12.874Z,101523.38
2022-08-24T00:53:24.340Z,101527.16
2022-08-24T00:58:32.617Z,101534.25
2022-08-24T01:03:37.347Z,101527.09
2022-08-24T01:08:40.891Z,101531.53
2022-08-24T01:13:47.857Z,101532.69
2022-08-24T01:18:50.769Z,101534.72
2022-08-24T01:23:58.434Z,101537.22
2022-08-24T01:29:05.229Z,101541.31
2022-08-24T01:34:09.254Z,101544.56
2022-08-24T01:39:16.349Z,101533.09
2022-08-24T01:44:20.452Z,101532.97
2022-08-24T01:49:25.947Z,101535.44
2022-08-24T01:54:31.361Z,101526.44
2022-08-24T01:59:38.646Z,101529.59
2022-08-24T02:04:44.224Z,101538.34
2022-08-24T02:09:49.347Z,101544.09
2022-08-24T02:14:53.395Z,101547.72
2022-08-24T02:19:56.324Z,101552.66
2022-08-24T02:25:00.602Z,101548.38
2022-08-24T02:30:06.362Z,101556.16
2022-08-24T02:35:11.073Z,101556.66
2022-08-24T02:40:15.651Z,101565.22
2022-08-24T02:45:18.982Z,101553.88
2022-08-24T02:50:23.144Z,101563.88
2022-08-24T02:55:27.692Z,101559.47
2022-08-24T03:00:30.613Z,101553.72
2022-08-24T03:05:34.167Z,101554.38
2022-08-24T03:10:38.663Z,101546.25
2022-08-24T03:15:41.926Z,101559.47
2022-08-24T03:20:44.907Z,101557.22
2022-08-24T03:25:49.333Z,101555.63
2022-08-24T03:30:53.507Z,101555.72
2022-08-24T03:35:57.805Z,101557.38
2022-08-24T03:41:02.245Z,101555.59
2022-08-24T03:46:07.433Z,101557.97
2022-08-24T03:51:13.334Z,101556.59
2022-08-24T03:56:18.454Z,101553.78
2022-08-24T04:01:22.729Z,101554.53
2022-08-24T04:06:26.454Z,101561.56
2022-08-24T04:11:32.202Z,101568.84
2022-08-24T04:16:36.406Z,101567.88
2022-08-24T04:21:50.132Z,101566.22
2022-08-24T04:26:56.392Z,101563.66
2022-08-24T04:32:00.950Z,101564.28
2022-08-24T04:37:08.534Z,101560.53
2022-08-24T04:42:15.359Z,101564.13
2022-08-24T04:47:18.781Z,101559.72
2022-08-24T04:52:22.682Z,101561.72
2022-08-24T04:57:26.907Z,101571.66
2022-08-24T05:02:31.046Z,101571.75
2022-08-24T05:07:36.478Z,101586.19
2022-08-24T05:12:40.998Z,101592.38
2022-08-24T05:17:51.398Z,101592.25
2022-08-24T05:22:56.334Z,101596.75
2022-08-24T05:28:01.723Z,101603.59
2022-08-24T05:33:05.013Z,101599.75
2022-08-24T05:38:09.531Z,101608.88
2022-08-24T05:43:15.664Z,101616.69
2022-08-24T05:48:19.274Z,101613.06
2022-08-24T05:53:57.143Z,101621.09
2022-08-24T05:59:05.576Z,101620.97
2022-08-24T06:04:08.532Z,101624.78
2022-08-24T06:09:12.600Z,101625.00
2022-08-24T06:14:21.882Z,101632.94
2022-08-24T06:19:31.457Z,101635.69
2022-08-24T06:24:54.945Z,101634.72
2022-08-24T06:30:01.312Z,101637.84
2022-08-24T06:35:33.199Z,101642.03
2022-08-24T06:40:36.175Z,101637.75
2022-08-24T06:45:41.616Z,101641.97
2022-08-24T06:50:49.657Z,101637.91
2022-08-24T06:55:54.744Z,101650.44
2022-08-24T07:01:08.267Z,101650.50
2022-08-24T07:06:12.567Z,101660.25
2022-08-24T07:11:20.112Z,101648.63
2022-08-24T07:16:24.957Z,101655.53
2022-08-24T07:21:32.989Z,101659.91
2022-08-24T07:26:36.057Z,101657.09
2022-08-24T07:31:41.376Z,101661.78
2022-08-24T07:36:50.729Z,101659.78
2022-08-24T07:42:12.326Z,101667.78
2022-08-24T07:47:37.711Z,101663.81
2022-08-24T07:52:48.454Z,101663.16
2022-08-24T07:57:51.498Z,101654.56
2022-08-24T08:02:56.810Z,101665.00
2022-08-24T08:08:00.186Z,101670.44
2022-08-24T08:13:04.291Z,101666.84
2022-08-24T08:18:09.444Z,101678.72
2022-08-24T08:23:31.846Z,101677.81
2022-08-24T08:28:42.700Z,101686.59
2022-08-24T08:33:47.401Z,101685.34
2022-08-24T08:38:51.437Z,101685.25
2022-08-24T08:44:01.178Z,101680.78
2022-08-24T08:49:16.827Z,101676.19
2022-08-24T08:54:43.748Z,101678.84
2022-08-24T09:00:15.579Z,101686.59
2022-08-24T09:06:04.853Z,101680.50
2022-08-24T09:11:20.559Z,101677.66
2022-08-24T09:16:39.715Z,101676.75
2022-08-24T09:21:57.495Z,101677.94
2022-08-24T09:27:07.080Z,101673.22
2022-08-24T09:32:28.544Z,101668.59
2022-08-24T09:37:50.801Z,101673.31
2022-08-24T09:43:32.748Z,101666.88
2022-08-24T09:49:13.626Z,101664.78
2022-08-24T09:54:36.800Z,101662.50
2022-08-24T10:00:05.939Z,101657.47
2022-08-24T10:05:29.193Z,101647.94
2022-08-24T10:10:46.872Z,101648.13
2022-08-24T10:16:09.113Z,101645.53
2022-08-24T10:21:25.508Z,101640.00
2022-08-24T10:26:41.144Z,101641.91
2022-08-24T10:32:03.875Z,101637.97
2022-08-24T10:37:42.422Z,101637.72
2022-08-24T10:43:37.773Z,101636.31
2022-08-24T10:49:02.922Z,101634.25
2022-08-24T10:54:12.293Z,101629.66
2022-08-24T10:59:23.475Z,101630.31
2022-08-24T11:04:30.538Z,101632.09
2022-08-24T11:09:48.314Z,101624.13
2022-08-24T11:14:54.047Z,101626.31
2022-08-24T11:19:59.371Z,101626.75
2022-08-24T11:25:11.602Z,101627.53
2022-08-24T11:30:26.013Z,101628.19
2022-08-24T11:35:37.301Z,101622.97
2022-08-24T11:40:45.453Z,101623.19
2022-08-24T11:46:01.748Z,101620.72
2022-08-24T11:51:15.952Z,101623.44
2022-08-24T11:56:26.394Z,101623.56
2022-08-24T12:01:36.083Z,101631.75
2022-08-24T12:06:59.607Z,101616.59
2022-08-24T12:12:12.267Z,101616.31
2022-08-24T12:17:20.334Z,101614.38
2022-08-24T12:22:24.897Z,101610.69
2022-08-24T12:27:33.466Z,101610.91
2022-08-24T12:32:41.580Z,101610.09
2022-08-24T12:37:49.206Z,101607.84
2022-08-24T12:42:56.409Z,101605.34
2022-08-24T12:48:06.433Z,101595.69
2022-08-24T12:53:27.000Z,101611.69
2022-08-24T12:58:55.704Z,101609.06
2022-08-24T13:04:13.455Z,101601.03
2022-08-24T13:09:29.868Z,101606.47
2022-08-24T13:14:35.528Z,101609.34
2022-08-24T13:19:41.980Z,101607.41
2022-08-24T13:24:46.199Z,101602.97
2022-08-24T13:30:09.130Z,101602.97
2022-08-24T13:35:35.709Z,101603.91
2022-08-24T13:40:48.843Z,101592.22
2022-08-24T13:45:58.400Z,101594.09
2022-08-24T13:51:26.494Z,101589.53
2022-08-24T13:56:39.099Z,101592.31
2022-08-24T14:02:06.840Z,101591.44
2022-08-24T14:07:17.178Z,101587.84
2022-08-24T14:12:38.958Z,101582.38
2022-08-24T14:17:55.128Z,101580.69
2022-08-24T14:23:04.367Z,101583.38
2022-08-24T14:28:36.042Z,101574.53
2022-08-24T14:33:52.021Z,101576.38
2022-08-24T14:39:04.824Z,101570.78
2022-08-24T14:44:26.187Z,101569.94
2022-08-24T14:49:36.814Z,101571.81
2022-08-24T14:54:47.761Z,101560.25
2022-08-24T15:00:06.375Z,101573.56
2022-08-24T15:05:22.071Z,101561.16
2022-08-24T15:10:28.873Z,101560.28
2022-08-24T15:15:36.261Z,101562.84
2022-08-24T15:20:54.593Z,101558.41
2022-08-24T15:26:04.753Z,101562.81
2022-08-24T15:31:11.796Z,101555.66
2022-08-24T15:36:18.171Z,101553.91
2022-08-24T15:41:24.593Z,101553.94
2022-08-24T15:46:33.863Z,101548.56
2022-08-24T15:51:47.820Z,101551.22
2022-08-24T15:56:53.601Z,101545.84
2022-08-24T16:02:28.922Z,101547.56
2022-08-24T16:07:55.022Z,101550.22
2022-08-24T16:13:08.015Z,101546.66
2022-08-24T16:18:12.569Z,101547.53
2022-08-24T16:23:26.812Z,101542.94
2022-08-24T16:28:37.373Z,101548.25
2022-08-24T16:33:44.588Z,101553.50
2022-08-24T16:38:51.086Z,101554.38
2022-08-24T16:43:54.369Z,101570.22
2022-08-24T16:48:57.483Z,101561.38
2022-08-24T16:54:01.690Z,101560.31
2022-08-24T16:59:06.915Z,101561.13
2022-08-24T17:04:09.902Z,101564.72
2022-08-24T17:09:14.232Z,101565.50
2022-08-24T17:14:18.031Z,101564.66
2022-08-24T17:19:21.444Z,101564.50
2022-08-24T17:24:26.811Z,101571.47
2022-08-24T17:29:30.195Z,101572.34
2022-08-24T17:34:33.280Z,101577.44
2022-08-24T17:39:37.640Z,101570.34
2022-08-24T17:44:40.574Z,101585.38
2022-08-24T17:49:43.526Z,101591.31
2022-08-24T17:54:47.748Z,101585.94
2022-08-24T17:59:51.332Z,101592.75
2022-08-24T18:04:54.185Z,101601.53
2022-08-24T18:10:00.654Z,101599.59
2022-08-24T18:15:03.606Z,101604.75
2022-08-24T18:20:10.121Z,101603.88
2022-08-24T18:25:16.158Z,101614.28
2022-08-24T18:30:22.601Z,101632.56
2022-08-24T18:35:28.482Z,101625.44
2022-08-24T18:40:34.352Z,101638.56
2022-08-24T18:45:37.313Z,101633.03
2022-08-24T18:50:42.277Z,101648.78
2022-08-24T18:55:48.007Z,101660.97
2022-08-24T19:00:51.693Z,101656.47
2022-08-24T19:05:55.628Z,101656.28
2022-08-24T19:11:00.311Z,101655.00
2022-08-24T19:16:03.326Z,101655.06
2022-08-24T19:21:06.621Z,101658.28
2022-08-24T19:26:10.942Z,101656.28
2022-08-24T19:31:14.668Z,101655.91
2022-08-24T19:36:18.381Z,101664.19
2022-08-24T19:41:23.140Z,101661.28
2022-08-24T19:46:40.167Z,101668.06
2022-08-24T19:51:43.684Z,101668.66
2022-08-24T19:56:48.171Z,101671.03
2022-08-24T20:01:51.197Z,101671.56
2022-08-24T20:06:54.316Z,101674.66
2022-08-24T20:11:58.572Z,101677.19
2022-08-24T20:17:01.550Z,101681.25
2022-08-24T20:22:13.213Z,101681.09
2022-08-24T20:27:22.076Z,101677.31
2022-08-24T20:32:25.021Z,101690.13
2022-08-24T20:37:29.827Z,101688.44
2022-08-24T20:42:34.102Z,101699.66
2022-08-24T20:47:48.742Z,101695.00
2022-08-24T20:52:52.780Z,101698.50
2022-08-24T20:58:00.655Z,101693.81
2022-08-24T21:03:03.754Z,101690.94
2022-08-24T21:08:06.851Z,101699.59
2022-08-24T21:13:11.479Z,101689.78
2022-08-24T21:18:14.766Z,101690.50
2022-08-24T21:23:17.591Z,101689.38
2022-08-24T21:28:22.549Z,101687.38
2022-08-24T21:33:43.103Z,101691.03
2022-08-24T21:38:45.911Z,101693.56
2022-08-24T21:43:50.693Z,101694.53
2022-08-24T21:48:53.627Z,101703.31
2022-08-24T21:53:59.612Z,101701.38
2022-08-24T21:59:04.420Z,101708.22
2022-08-24T22:04:08.776Z,101710.47
2022-08-24T22:09:11.668Z,101706.03
2022-08-24T22:14:16.792Z,101701.25
2022-08-24T22:19:20.027Z,101699.44
2022-08-24T22:24:23.139Z,101698.50
2022-08-24T22:29:27.381Z,101693.78
2022-08-24T22:34:30.956Z,101695.44
2022-08-24T22:39:34.076Z,101692.53
2022-08-24T22:44:38.328Z,101681.72
2022-08-24T22:49:44.341Z,101682.72
2022-08-24T22:54:47.202Z,101683.38
2022-08-24T22:59:52.079Z,101689.91
2022-08-24T23:04:55.051Z,101693.44
2022-08-24T23:09:58.013Z,101693.00
2022-08-24T23:15:02.316Z,101690.19
2022-08-24T23:20:06.421Z,101699.81
2022-08-24T23:25:14.739Z,101703.25
2022-08-24T23:30:19.085Z,101705.78
2022-08-24T23:35:21.895Z,101693.69
2022-08-24T23:40:25.081Z,101699.72
2022-08-24T23:45:30.555Z,101693.34
2022-08-24T23:50:34.361Z,101692.50
2022-08-24T23:55:37.186Z,101699.25
